sensor_id;sensor_type;location;lat;lon;timestamp;temperature;humidity
18777;DHT22;9517;51.174;4.160;2023-04-24T00:01:53;9.80;99.90
18777;DHT22;9517;51.174;4.160;2023-04-24T00:04:22;9.80;99.90
18777;DHT22;9517;51.174;4.160;2023-04-24T00:06:51;9.70;99.90
18777;DHT22;9517;51.174;4.160;2023-04-24T00:09:22;9.80;99.90
18777;DHT22;9517;51.174;4.160;2023-04-24T00:11:49;9.70;99.90
18777;DHT22;9517;51.174;4.160;2023-04-24T00:14:17;9.70;99.90
18777;DHT22;9517;51.174;4.160;2023-04-24T00:16:44;9.80;99.90
18777;DHT22;9517;51.174;4.160;2023-04-24T00:19:11;9.80;99.90
18777;DHT22;9517;51.174;4.160;2023-04-24T00:21:40;9.70;99.90
18777;DHT22;9517;51.174;4.160;2023-04-24T00:24:07;9.70;99.90
18777;DHT22;9517;51.174;4.160;2023-04-24T00:26:35;9.80;99.90
18777;DHT22;9517;51.174;4.160;2023-04-24T00:29:02;9.70;99.90
18777;DHT22;9517;51.174;4.160;2023-04-24T00:31:30;9.70;99.90
18777;DHT22;9517;51.174;4.160;2023-04-24T00:33:58;9.70;99.90
18777;DHT22;9517;51.174;4.160;2023-04-24T00:36:25;9.70;99.90
18777;DHT22;9517;51.174;4.160;2023-04-24T00:38:54;9.70;99.90
18777;DHT22;9517;51.174;4.160;2023-04-24T00:41:21;9.70;99.90
18777;DHT22;9517;51.174;4.160;2023-04-24T00:43:48;9.70;99.90
18777;DHT22;9517;51.174;4.160;2023-04-24T00:46:16;9.70;99.90
18777;DHT22;9517;51.174;4.160;2023-04-24T00:48:44;9.70;99.90
18777;DHT22;9517;51.174;4.160;2023-04-24T00:51:11;9.70;99.90
18777;DHT22;9517;51.174;4.160;2023-04-24T00:53:38;9.60;99.90
18777;DHT22;9517;51.174;4.160;2023-04-24T00:56:07;9.50;99.90
18777;DHT22;9517;51.174;4.160;2023-04-24T00:58:35;9.60;99.90
18777;DHT22;9517;51.174;4.160;2023-04-24T01:01:02;9.50;99.90
18777;DHT22;9517;51.174;4.160;2023-04-24T01:03:33;9.60;99.90
18777;DHT22;9517;51.174;4.160;2023-04-24T01:06:03;9.50;99.90
18777;DHT22;9517;51.174;4.160;2023-04-24T01:08:31;9.60;99.90
18777;DHT22;9517;51.174;4.160;2023-04-24T01:10:59;9.70;99.90
18777;DHT22;9517;51.174;4.160;2023-04-24T01:13:28;9.70;99.90
18777;DHT22;9517;51.174;4.160;2023-04-24T01:15:55;9.70;99.90
18777;DHT22;9517;51.174;4.160;2023-04-24T01:18:23;9.70;99.90
18777;DHT22;9517;51.174;4.160;2023-04-24T01:20:51;9.70;99.90
18777;DHT22;9517;51.174;4.160;2023-04-24T01:23:21;9.70;99.90
18777;DHT22;9517;51.174;4.160;2023-04-24T01:25:49;9.70;99.90
18777;DHT22;9517;51.174;4.160;2023-04-24T01:28:17;9.60;99.90
18777;DHT22;9517;51.174;4.160;2023-04-24T01:30:44;9.60;99.90
18777;DHT22;9517;51.174;4.160;2023-04-24T01:33:11;9.70;99.90
18777;DHT22;9517;51.174;4.160;2023-04-24T01:35:39;9.60;99.90
18777;DHT22;9517;51.174;4.160;2023-04-24T01:38:07;9.70;99.90
18777;DHT22;9517;51.174;4.160;2023-04-24T01:40:35;9.60;99.90
18777;DHT22;9517;51.174;4.160;2023-04-24T01:43:02;9.70;99.90
18777;DHT22;9517;51.174;4.160;2023-04-24T01:45:30;9.70;99.90
18777;DHT22;9517;51.174;4.160;2023-04-24T01:47:57;9.70;99.90
18777;DHT22;9517;51.174;4.160;2023-04-24T01:50:24;9.60;99.90
18777;DHT22;9517;51.174;4.160;2023-04-24T01:52:51;9.70;99.90
18777;DHT22;9517;51.174;4.160;2023-04-24T01:55:19;9.60;99.90
18777;DHT22;9517;51.174;4.160;2023-04-24T01:57:47;9.60;99.90
18777;DHT22;9517;51.174;4.160;2023-04-24T02:00:15;9.70;99.90
18777;DHT22;9517;51.174;4.160;2023-04-24T02:02:43;9.60;99.90
18777;DHT22;9517;51.174;4.160;2023-04-24T02:05:11;9.60;99.90
18777;DHT22;9517;51.174;4.160;2023-04-24T02:07:38;9.60;99.90
18777;DHT22;9517;51.174;4.160;2023-04-24T02:10:06;9.50;99.90
18777;DHT22;9517;51.174;4.160;2023-04-24T02:12:33;9.40;99.90
18777;DHT22;9517;51.174;4.160;2023-04-24T02:15:02;9.30;99.90
18777;DHT22;9517;51.174;4.160;2023-04-24T02:17:30;9.20;99.90
18777;DHT22;9517;51.174;4.160;2023-04-24T02:19:57;9.10;99.90
18777;DHT22;9517;51.174;4.160;2023-04-24T02:22:24;9.10;99.90
18777;DHT22;9517;51.174;4.160;2023-04-24T02:24:51;9.00;99.90
18777;DHT22;9517;51.174;4.160;2023-04-24T02:27:21;9.00;99.90
18777;DHT22;9517;51.174;4.160;2023-04-24T02:29:48;9.00;99.90
18777;DHT22;9517;51.174;4.160;2023-04-24T02:32:17;8.90;99.90
18777;DHT22;9517;51.174;4.160;2023-04-24T02:34:44;8.90;99.90
18777;DHT22;9517;51.174;4.160;2023-04-24T02:37:11;8.90;99.90
18777;DHT22;9517;51.174;4.160;2023-04-24T02:39:38;8.90;99.90
18777;DHT22;9517;51.174;4.160;2023-04-24T02:42:06;8.90;99.90
18777;DHT22;9517;51.174;4.160;2023-04-24T02:44:33;8.90;99.90
18777;DHT22;9517;51.174;4.160;2023-04-24T02:47:01;8.80;99.90
18777;DHT22;9517;51.174;4.160;2023-04-24T02:49:29;8.80;99.90
18777;DHT22;9517;51.174;4.160;2023-04-24T02:51:56;8.80;99.90
18777;DHT22;9517;51.174;4.160;2023-04-24T02:54:23;8.80;99.90
18777;DHT22;9517;51.174;4.160;2023-04-24T02:56:51;8.80;99.90
18777;DHT22;9517;51.174;4.160;2023-04-24T02:59:18;8.80;99.90
18777;DHT22;9517;51.174;4.160;2023-04-24T03:01:45;8.70;99.90
18777;DHT22;9517;51.174;4.160;2023-04-24T03:04:12;8.70;99.90
18777;DHT22;9517;51.174;4.160;2023-04-24T03:06:41;8.70;99.90
18777;DHT22;9517;51.174;4.160;2023-04-24T03:09:08;8.70;99.90
18777;DHT22;9517;51.174;4.160;2023-04-24T03:11:36;8.80;99.90
18777;DHT22;9517;51.174;4.160;2023-04-24T03:14:03;8.80;99.90
18777;DHT22;9517;51.174;4.160;2023-04-24T03:16:30;8.80;99.90
18777;DHT22;9517;51.174;4.160;2023-04-24T03:18:58;8.80;99.90
18777;DHT22;9517;51.174;4.160;2023-04-24T03:21:25;8.80;99.90
18777;DHT22;9517;51.174;4.160;2023-04-24T03:23:54;8.80;99.90
18777;DHT22;9517;51.174;4.160;2023-04-24T03:26:21;8.70;99.90
18777;DHT22;9517;51.174;4.160;2023-04-24T03:28:49;8.70;99.90
18777;DHT22;9517;51.174;4.160;2023-04-24T03:31:16;8.60;99.90
18777;DHT22;9517;51.174;4.160;2023-04-24T03:33:44;8.60;99.90
18777;DHT22;9517;51.174;4.160;2023-04-24T03:36:12;8.60;99.90
18777;DHT22;9517;51.174;4.160;2023-04-24T03:38:39;8.60;99.90
18777;DHT22;9517;51.174;4.160;2023-04-24T03:41:08;8.60;99.90
18777;DHT22;9517;51.174;4.160;2023-04-24T03:43:36;8.60;99.90
18777;DHT22;9517;51.174;4.160;2023-04-24T03:46:03;8.60;99.90
18777;DHT22;9517;51.174;4.160;2023-04-24T03:48:31;8.60;99.90
18777;DHT22;9517;51.174;4.160;2023-04-24T03:50:58;8.50;99.90
18777;DHT22;9517;51.174;4.160;2023-04-24T03:53:25;8.50;99.90
18777;DHT22;9517;51.174;4.160;2023-04-24T03:55:52;8.50;99.90
18777;DHT22;9517;51.174;4.160;2023-04-24T03:58:22;8.50;99.90
18777;DHT22;9517;51.174;4.160;2023-04-24T04:00:49;8.50;99.90
18777;DHT22;9517;51.174;4.160;2023-04-24T04:03:16;8.50;99.90
18777;DHT22;9517;51.174;4.160;2023-04-24T04:05:43;8.40;99.90
18777;DHT22;9517;51.174;4.160;2023-04-24T04:08:10;8.40;99.90
18777;DHT22;9517;51.174;4.160;2023-04-24T04:10:37;8.40;99.90
18777;DHT22;9517;51.174;4.160;2023-04-24T04:13:05;8.30;99.90
18777;DHT22;9517;51.174;4.160;2023-04-24T04:15:34;8.30;99.90
18777;DHT22;9517;51.174;4.160;2023-04-24T04:18:01;8.30;99.90
18777;DHT22;9517;51.174;4.160;2023-04-24T04:20:28;8.20;99.90
18777;DHT22;9517;51.174;4.160;2023-04-24T04:22:55;8.30;99.90
18777;DHT22;9517;51.174;4.160;2023-04-24T04:25:22;8.20;99.90
18777;DHT22;9517;51.174;4.160;2023-04-24T04:27:51;8.20;99.90
18777;DHT22;9517;51.174;4.160;2023-04-24T04:30:19;8.20;99.90
18777;DHT22;9517;51.174;4.160;2023-04-24T04:32:47;8.20;99.90
18777;DHT22;9517;51.174;4.160;2023-04-24T04:35:15;8.20;99.90
18777;DHT22;9517;51.174;4.160;2023-04-24T04:37:43;8.10;99.90
18777;DHT22;9517;51.174;4.160;2023-04-24T04:40:10;8.10;99.90
18777;DHT22;9517;51.174;4.160;2023-04-24T04:42:38;8.10;99.90
18777;DHT22;9517;51.174;4.160;2023-04-24T04:45:06;8.10;99.90
18777;DHT22;9517;51.174;4.160;2023-04-24T04:47:35;8.10;99.90
18777;DHT22;9517;51.174;4.160;2023-04-24T04:50:04;8.10;99.90
18777;DHT22;9517;51.174;4.160;2023-04-24T04:52:31;8.10;99.90
18777;DHT22;9517;51.174;4.160;2023-04-24T04:54:58;8.20;99.90
18777;DHT22;9517;51.174;4.160;2023-04-24T04:57:25;8.20;99.90
18777;DHT22;9517;51.174;4.160;2023-04-24T04:59:53;8.20;99.90
18777;DHT22;9517;51.174;4.160;2023-04-24T05:02:20;8.20;99.90
18777;DHT22;9517;51.174;4.160;2023-04-24T05:04:47;8.10;99.90
18777;DHT22;9517;51.174;4.160;2023-04-24T05:07:16;8.10;99.90
18777;DHT22;9517;51.174;4.160;2023-04-24T05:09:43;8.10;99.90
18777;DHT22;9517;51.174;4.160;2023-04-24T05:12:10;8.10;99.90
18777;DHT22;9517;51.174;4.160;2023-04-24T05:14:37;8.10;99.90
18777;DHT22;9517;51.174;4.160;2023-04-24T05:17:04;8.10;99.90
18777;DHT22;9517;51.174;4.160;2023-04-24T05:19:32;8.10;99.90
18777;DHT22;9517;51.174;4.160;2023-04-24T05:22:01;8.10;99.90
18777;DHT22;9517;51.174;4.160;2023-04-24T05:24:31;8.10;99.90
18777;DHT22;9517;51.174;4.160;2023-04-24T05:26:58;8.10;99.90
18777;DHT22;9517;51.174;4.160;2023-04-24T05:29:25;8.10;99.90
18777;DHT22;9517;51.174;4.160;2023-04-24T05:31:52;8.10;99.90
18777;DHT22;9517;51.174;4.160;2023-04-24T05:34:20;8.10;99.90
18777;DHT22;9517;51.174;4.160;2023-04-24T05:36:47;8.00;99.90
18777;DHT22;9517;51.174;4.160;2023-04-24T05:39:14;8.00;99.90
18777;DHT22;9517;51.174;4.160;2023-04-24T05:41:43;8.10;99.90
18777;DHT22;9517;51.174;4.160;2023-04-24T05:44:10;8.10;99.90
18777;DHT22;9517;51.174;4.160;2023-04-24T05:46:37;8.10;99.90
18777;DHT22;9517;51.174;4.160;2023-04-24T05:49:04;8.10;99.90
18777;DHT22;9517;51.174;4.160;2023-04-24T05:51:31;8.20;99.90
18777;DHT22;9517;51.174;4.160;2023-04-24T05:53:58;8.30;99.90
18777;DHT22;9517;51.174;4.160;2023-04-24T05:56:25;8.30;99.90
18777;DHT22;9517;51.174;4.160;2023-04-24T05:58:54;8.30;99.90
18777;DHT22;9517;51.174;4.160;2023-04-24T06:01:21;8.30;99.90
18777;DHT22;9517;51.174;4.160;2023-04-24T06:03:49;8.30;99.90
18777;DHT22;9517;51.174;4.160;2023-04-24T06:06:16;8.30;99.90
18777;DHT22;9517;51.174;4.160;2023-04-24T06:08:43;8.30;99.90
18777;DHT22;9517;51.174;4.160;2023-04-24T06:11:11;8.40;99.90
18777;DHT22;9517;51.174;4.160;2023-04-24T06:13:38;8.40;99.90
18777;DHT22;9517;51.174;4.160;2023-04-24T06:16:06;8.50;99.90
18777;DHT22;9517;51.174;4.160;2023-04-24T06:18:33;8.50;99.90
18777;DHT22;9517;51.174;4.160;2023-04-24T06:21:00;8.50;99.90
18777;DHT22;9517;51.174;4.160;2023-04-24T06:23:28;8.50;99.90
18777;DHT22;9517;51.174;4.160;2023-04-24T06:25:55;8.60;99.90
18777;DHT22;9517;51.174;4.160;2023-04-24T06:28:22;8.50;99.90
18777;DHT22;9517;51.174;4.160;2023-04-24T06:30:49;8.50;99.90
18777;DHT22;9517;51.174;4.160;2023-04-24T06:33:17;8.50;99.90
18777;DHT22;9517;51.174;4.160;2023-04-24T06:35:44;8.40;99.90
18777;DHT22;9517;51.174;4.160;2023-04-24T06:38:11;8.40;99.90
18777;DHT22;9517;51.174;4.160;2023-04-24T06:40:38;8.40;99.90
18777;DHT22;9517;51.174;4.160;2023-04-24T06:43:05;8.40;99.90
18777;DHT22;9517;51.174;4.160;2023-04-24T06:45:32;8.40;99.90
18777;DHT22;9517;51.174;4.160;2023-04-24T06:48:00;8.40;99.90
18777;DHT22;9517;51.174;4.160;2023-04-24T06:50:28;8.50;99.90
18777;DHT22;9517;51.174;4.160;2023-04-24T06:52:55;8.50;99.90
18777;DHT22;9517;51.174;4.160;2023-04-24T06:55:22;8.40;99.90
18777;DHT22;9517;51.174;4.160;2023-04-24T06:57:49;8.40;99.90
18777;DHT22;9517;51.174;4.160;2023-04-24T07:00:17;8.40;99.90
18777;DHT22;9517;51.174;4.160;2023-04-24T07:02:44;8.50;99.90
18777;DHT22;9517;51.174;4.160;2023-04-24T07:05:11;8.40;99.90
18777;DHT22;9517;51.174;4.160;2023-04-24T07:07:39;8.60;99.90
18777;DHT22;9517;51.174;4.160;2023-04-24T07:10:08;8.60;99.90
18777;DHT22;9517;51.174;4.160;2023-04-24T07:12:35;8.60;99.90
18777;DHT22;9517;51.174;4.160;2023-04-24T07:15:03;8.70;99.90
18777;DHT22;9517;51.174;4.160;2023-04-24T07:17:31;8.80;99.90
18777;DHT22;9517;51.174;4.160;2023-04-24T07:19:58;8.90;99.90
18777;DHT22;9517;51.174;4.160;2023-04-24T07:22:25;9.00;99.90
18777;DHT22;9517;51.174;4.160;2023-04-24T07:24:53;9.10;99.90
18777;DHT22;9517;51.174;4.160;2023-04-24T07:27:20;9.30;99.90
18777;DHT22;9517;51.174;4.160;2023-04-24T07:29:47;9.50;99.90
18777;DHT22;9517;51.174;4.160;2023-04-24T07:32:14;9.60;99.90
18777;DHT22;9517;51.174;4.160;2023-04-24T07:34:41;9.70;99.90
18777;DHT22;9517;51.174;4.160;2023-04-24T07:37:08;9.80;99.90
18777;DHT22;9517;51.174;4.160;2023-04-24T07:39:35;9.80;99.90
18777;DHT22;9517;51.174;4.160;2023-04-24T07:42:04;9.80;99.90
18777;DHT22;9517;51.174;4.160;2023-04-24T07:44:31;9.80;99.90
18777;DHT22;9517;51.174;4.160;2023-04-24T07:46:58;9.60;99.90
18777;DHT22;9517;51.174;4.160;2023-04-24T07:49:25;9.60;99.90
18777;DHT22;9517;51.174;4.160;2023-04-24T07:51:53;9.60;99.90
18777;DHT22;9517;51.174;4.160;2023-04-24T07:54:20;9.40;99.90
18777;DHT22;9517;51.174;4.160;2023-04-24T07:56:48;9.40;99.90
18777;DHT22;9517;51.174;4.160;2023-04-24T07:59:17;9.30;99.90
18777;DHT22;9517;51.174;4.160;2023-04-24T08:01:44;9.30;99.90
18777;DHT22;9517;51.174;4.160;2023-04-24T08:04:11;9.40;99.90
18777;DHT22;9517;51.174;4.160;2023-04-24T08:06:38;9.50;99.90
18777;DHT22;9517;51.174;4.160;2023-04-24T08:09:05;9.40;99.90
18777;DHT22;9517;51.174;4.160;2023-04-24T08:11:32;9.50;99.90
18777;DHT22;9517;51.174;4.160;2023-04-24T08:13:59;9.60;99.90
18777;DHT22;9517;51.174;4.160;2023-04-24T08:16:28;9.70;99.90
18777;DHT22;9517;51.174;4.160;2023-04-24T08:18:55;9.80;99.90
18777;DHT22;9517;51.174;4.160;2023-04-24T08:21:22;9.80;99.90
18777;DHT22;9517;51.174;4.160;2023-04-24T08:23:49;9.80;99.90
18777;DHT22;9517;51.174;4.160;2023-04-24T08:26:16;9.90;99.90
18777;DHT22;9517;51.174;4.160;2023-04-24T08:28:43;9.90;99.90
18777;DHT22;9517;51.174;4.160;2023-04-24T08:31:10;10.00;99.90
18777;DHT22;9517;51.174;4.160;2023-04-24T08:33:39;10.10;99.90
18777;DHT22;9517;51.174;4.160;2023-04-24T08:36:07;10.20;99.90
18777;DHT22;9517;51.174;4.160;2023-04-24T08:38:34;10.10;99.90
18777;DHT22;9517;51.174;4.160;2023-04-24T08:41:01;10.00;99.90
18777;DHT22;9517;51.174;4.160;2023-04-24T08:43:30;9.80;99.90
18777;DHT22;9517;51.174;4.160;2023-04-24T08:45:58;9.70;99.90
18777;DHT22;9517;51.174;4.160;2023-04-24T08:48:26;9.50;99.90
18777;DHT22;9517;51.174;4.160;2023-04-24T08:50:56;9.40;99.90
18777;DHT22;9517;51.174;4.160;2023-04-24T08:53:24;9.20;99.90
18777;DHT22;9517;51.174;4.160;2023-04-24T08:55:51;9.20;99.90
18777;DHT22;9517;51.174;4.160;2023-04-24T08:58:20;9.30;99.90
18777;DHT22;9517;51.174;4.160;2023-04-24T09:00:48;9.50;99.90
18777;DHT22;9517;51.174;4.160;2023-04-24T09:03:16;9.70;99.90
18777;DHT22;9517;51.174;4.160;2023-04-24T09:05:44;9.70;99.90
18777;DHT22;9517;51.174;4.160;2023-04-24T09:08:14;10.10;99.90
18777;DHT22;9517;51.174;4.160;2023-04-24T09:10:42;10.40;99.90
18777;DHT22;9517;51.174;4.160;2023-04-24T09:13:10;10.60;99.90
18777;DHT22;9517;51.174;4.160;2023-04-24T09:15:37;10.70;99.90
18777;DHT22;9517;51.174;4.160;2023-04-24T09:18:05;10.70;99.90
18777;DHT22;9517;51.174;4.160;2023-04-24T09:20:32;10.60;99.90
18777;DHT22;9517;51.174;4.160;2023-04-24T09:23:01;10.50;99.90
18777;DHT22;9517;51.174;4.160;2023-04-24T09:25:33;10.80;99.90
18777;DHT22;9517;51.174;4.160;2023-04-24T09:28:02;10.80;99.90
18777;DHT22;9517;51.174;4.160;2023-04-24T09:30:29;10.70;99.90
18777;DHT22;9517;51.174;4.160;2023-04-24T09:33:12;10.60;99.90
18777;DHT22;9517;51.174;4.160;2023-04-24T09:35:41;10.50;99.90
18777;DHT22;9517;51.174;4.160;2023-04-24T09:38:09;10.60;99.90
18777;DHT22;9517;51.174;4.160;2023-04-24T09:40:37;10.70;99.90
18777;DHT22;9517;51.174;4.160;2023-04-24T09:43:11;10.70;99.90
18777;DHT22;9517;51.174;4.160;2023-04-24T09:45:39;10.80;99.90
18777;DHT22;9517;51.174;4.160;2023-04-24T09:48:09;10.90;99.90
18777;DHT22;9517;51.174;4.160;2023-04-24T09:50:36;10.90;99.90
18777;DHT22;9517;51.174;4.160;2023-04-24T09:53:04;10.70;99.90
18777;DHT22;9517;51.174;4.160;2023-04-24T09:55:42;10.80;99.90
18777;DHT22;9517;51.174;4.160;2023-04-24T09:58:11;10.90;99.90
18777;DHT22;9517;51.174;4.160;2023-04-24T10:00:39;11.30;99.90
18777;DHT22;9517;51.174;4.160;2023-04-24T10:03:06;11.20;99.90
18777;DHT22;9517;51.174;4.160;2023-04-24T10:05:35;11.10;99.90
18777;DHT22;9517;51.174;4.160;2023-04-24T10:08:04;11.20;99.90
18777;DHT22;9517;51.174;4.160;2023-04-24T10:10:34;11.00;99.90
18777;DHT22;9517;51.174;4.160;2023-04-24T10:13:05;10.90;99.90
18777;DHT22;9517;51.174;4.160;2023-04-24T10:15:35;10.80;99.90
18777;DHT22;9517;51.174;4.160;2023-04-24T10:18:04;10.60;99.90
18777;DHT22;9517;51.174;4.160;2023-04-24T10:20:33;10.70;99.90
18777;DHT22;9517;51.174;4.160;2023-04-24T10:23:00;10.60;99.90
18777;DHT22;9517;51.174;4.160;2023-04-24T10:25:29;10.70;99.90
18777;DHT22;9517;51.174;4.160;2023-04-24T10:27:59;10.50;99.90
18777;DHT22;9517;51.174;4.160;2023-04-24T10:30:30;10.50;99.90
18777;DHT22;9517;51.174;4.160;2023-04-24T10:33:00;10.70;99.90
18777;DHT22;9517;51.174;4.160;2023-04-24T10:35:30;10.90;99.90
18777;DHT22;9517;51.174;4.160;2023-04-24T10:37:59;10.90;99.90
18777;DHT22;9517;51.174;4.160;2023-04-24T10:40:31;11.40;99.90
18777;DHT22;9517;51.174;4.160;2023-04-24T10:43:01;11.80;99.90
18777;DHT22;9517;51.174;4.160;2023-04-24T10:45:30;12.20;99.90
18777;DHT22;9517;51.174;4.160;2023-04-24T10:47:58;12.20;99.90
18777;DHT22;9517;51.174;4.160;2023-04-24T10:50:27;12.40;99.90
18777;DHT22;9517;51.174;4.160;2023-04-24T10:53:17;12.20;99.90
18777;DHT22;9517;51.174;4.160;2023-04-24T10:58:50;11.80;99.90
18777;DHT22;9517;51.174;4.160;2023-04-24T11:01:26;12.40;99.90
18777;DHT22;9517;51.174;4.160;2023-04-24T11:03:55;13.00;99.90
18777;DHT22;9517;51.174;4.160;2023-04-24T11:06:28;12.70;99.90
18777;DHT22;9517;51.174;4.160;2023-04-24T11:09:02;12.30;99.90
18777;DHT22;9517;51.174;4.160;2023-04-24T11:11:30;12.00;99.90
18777;DHT22;9517;51.174;4.160;2023-04-24T11:14:07;11.60;99.90
18777;DHT22;9517;51.174;4.160;2023-04-24T11:16:42;11.50;99.90
18777;DHT22;9517;51.174;4.160;2023-04-24T11:19:17;12.70;99.90
18777;DHT22;9517;51.174;4.160;2023-04-24T11:21:46;13.60;99.90
18777;DHT22;9517;51.174;4.160;2023-04-24T11:24:37;13.60;99.90
18777;DHT22;9517;51.174;4.160;2023-04-24T11:27:12;12.90;99.90
18777;DHT22;9517;51.174;4.160;2023-04-24T11:29:42;12.50;99.90
18777;DHT22;9517;51.174;4.160;2023-04-24T11:32:18;12.50;99.90
18777;DHT22;9517;51.174;4.160;2023-04-24T11:34:47;12.50;99.90
18777;DHT22;9517;51.174;4.160;2023-04-24T11:37:14;12.30;99.90
18777;DHT22;9517;51.174;4.160;2023-04-24T11:39:42;12.40;99.90
18777;DHT22;9517;51.174;4.160;2023-04-24T11:42:09;12.10;99.90
18777;DHT22;9517;51.174;4.160;2023-04-24T11:44:36;12.20;99.90
18777;DHT22;9517;51.174;4.160;2023-04-24T11:47:04;12.50;99.90
18777;DHT22;9517;51.174;4.160;2023-04-24T11:49:34;13.00;99.90
18777;DHT22;9517;51.174;4.160;2023-04-24T11:52:03;13.50;99.90
18777;DHT22;9517;51.174;4.160;2023-04-24T11:54:30;14.10;99.90
18777;DHT22;9517;51.174;4.160;2023-04-24T11:56:57;15.20;99.90
18777;DHT22;9517;51.174;4.160;2023-04-24T11:59:25;14.90;99.90
18777;DHT22;9517;51.174;4.160;2023-04-24T12:01:52;15.80;99.90
18777;DHT22;9517;51.174;4.160;2023-04-24T12:04:19;16.10;99.90
18777;DHT22;9517;51.174;4.160;2023-04-24T12:07:03;15.20;99.90
18777;DHT22;9517;51.174;4.160;2023-04-24T12:09:41;14.30;99.90
18777;DHT22;9517;51.174;4.160;2023-04-24T12:12:09;15.20;99.90
18777;DHT22;9517;51.174;4.160;2023-04-24T12:14:43;15.40;99.90
18777;DHT22;9517;51.174;4.160;2023-04-24T12:17:10;15.50;99.90
18777;DHT22;9517;51.174;4.160;2023-04-24T12:19:37;15.00;99.90
18777;DHT22;9517;51.174;4.160;2023-04-24T12:22:06;14.70;99.90
18777;DHT22;9517;51.174;4.160;2023-04-24T12:24:33;14.20;99.90
18777;DHT22;9517;51.174;4.160;2023-04-24T12:27:00;14.20;99.90
18777;DHT22;9517;51.174;4.160;2023-04-24T12:29:28;14.20;99.90
18777;DHT22;9517;51.174;4.160;2023-04-24T12:31:55;14.10;99.90
18777;DHT22;9517;51.174;4.160;2023-04-24T12:34:23;13.80;99.90
18777;DHT22;9517;51.174;4.160;2023-04-24T12:36:51;13.50;99.90
18777;DHT22;9517;51.174;4.160;2023-04-24T12:39:20;13.80;99.90
18777;DHT22;9517;51.174;4.160;2023-04-24T12:41:58;14.10;99.90
18777;DHT22;9517;51.174;4.160;2023-04-24T12:44:30;14.20;99.90
18777;DHT22;9517;51.174;4.160;2023-04-24T12:46:58;14.40;99.90
18777;DHT22;9517;51.174;4.160;2023-04-24T12:49:25;14.50;99.90
18777;DHT22;9517;51.174;4.160;2023-04-24T12:51:52;15.20;99.90
18777;DHT22;9517;51.174;4.160;2023-04-24T12:54:21;15.90;99.90
18777;DHT22;9517;51.174;4.160;2023-04-24T12:56:48;16.20;99.90
18777;DHT22;9517;51.174;4.160;2023-04-24T12:59:15;15.60;99.90
18777;DHT22;9517;51.174;4.160;2023-04-24T13:01:43;16.30;99.90
18777;DHT22;9517;51.174;4.160;2023-04-24T13:04:10;16.50;99.90
18777;DHT22;9517;51.174;4.160;2023-04-24T13:06:37;16.50;99.90
18777;DHT22;9517;51.174;4.160;2023-04-24T13:09:04;16.20;99.90
18777;DHT22;9517;51.174;4.160;2023-04-24T13:11:33;16.90;99.90
18777;DHT22;9517;51.174;4.160;2023-04-24T13:14:00;16.00;99.90
18777;DHT22;9517;51.174;4.160;2023-04-24T13:16:27;16.10;99.90
18777;DHT22;9517;51.174;4.160;2023-04-24T13:18:54;15.60;99.90
18777;DHT22;9517;51.174;4.160;2023-04-24T13:21:21;16.00;99.90
18777;DHT22;9517;51.174;4.160;2023-04-24T13:23:48;15.50;99.90
18777;DHT22;9517;51.174;4.160;2023-04-24T13:26:15;15.20;99.90
18777;DHT22;9517;51.174;4.160;2023-04-24T13:28:43;15.70;99.90
18777;DHT22;9517;51.174;4.160;2023-04-24T13:31:10;15.30;99.90
18777;DHT22;9517;51.174;4.160;2023-04-24T13:33:37;15.20;99.90
18777;DHT22;9517;51.174;4.160;2023-04-24T13:36:05;15.00;99.90
18777;DHT22;9517;51.174;4.160;2023-04-24T13:38:32;15.50;99.90
18777;DHT22;9517;51.174;4.160;2023-04-24T13:41:00;15.70;99.90
18777;DHT22;9517;51.174;4.160;2023-04-24T13:43:27;15.80;99.90
18777;DHT22;9517;51.174;4.160;2023-04-24T13:45:55;15.30;99.90
18777;DHT22;9517;51.174;4.160;2023-04-24T13:48:22;15.70;99.90
18777;DHT22;9517;51.174;4.160;2023-04-24T13:50:49;16.60;99.90
18777;DHT22;9517;51.174;4.160;2023-04-24T13:53:16;17.30;99.90
18777;DHT22;9517;51.174;4.160;2023-04-24T13:55:44;17.90;99.90
18777;DHT22;9517;51.174;4.160;2023-04-24T13:58:11;18.10;99.90
18777;DHT22;9517;51.174;4.160;2023-04-24T14:00:38;18.30;99.90
18777;DHT22;9517;51.174;4.160;2023-04-24T14:03:06;18.60;99.90
18777;DHT22;9517;51.174;4.160;2023-04-24T14:05:33;18.80;99.90
18777;DHT22;9517;51.174;4.160;2023-04-24T14:08:00;18.90;99.90
18777;DHT22;9517;51.174;4.160;2023-04-24T14:10:27;19.00;99.90
18777;DHT22;9517;51.174;4.160;2023-04-24T14:12:55;18.20;99.90
18777;DHT22;9517;51.174;4.160;2023-04-24T14:15:22;17.80;99.90
18777;DHT22;9517;51.174;4.160;2023-04-24T14:17:49;18.00;99.90
18777;DHT22;9517;51.174;4.160;2023-04-24T14:20:18;18.60;99.90
18777;DHT22;9517;51.174;4.160;2023-04-24T14:22:45;17.70;99.90
18777;DHT22;9517;51.174;4.160;2023-04-24T14:25:12;17.50;99.90
18777;DHT22;9517;51.174;4.160;2023-04-24T14:27:39;17.80;99.90
18777;DHT22;9517;51.174;4.160;2023-04-24T14:30:07;17.70;99.90
18777;DHT22;9517;51.174;4.160;2023-04-24T14:32:34;17.50;99.90
18777;DHT22;9517;51.174;4.160;2023-04-24T14:35:01;17.80;99.90
18777;DHT22;9517;51.174;4.160;2023-04-24T14:37:30;16.30;99.90
18777;DHT22;9517;51.174;4.160;2023-04-24T14:39:57;15.70;99.90
18777;DHT22;9517;51.174;4.160;2023-04-24T14:42:24;16.00;99.90
18777;DHT22;9517;51.174;4.160;2023-04-24T14:44:52;16.60;99.90
18777;DHT22;9517;51.174;4.160;2023-04-24T14:47:19;17.20;99.90
18777;DHT22;9517;51.174;4.160;2023-04-24T14:49:47;18.10;99.90
18777;DHT22;9517;51.174;4.160;2023-04-24T14:52:14;18.60;99.90
18777;DHT22;9517;51.174;4.160;2023-04-24T14:54:43;18.10;99.90
18777;DHT22;9517;51.174;4.160;2023-04-24T14:57:10;17.90;99.90
18777;DHT22;9517;51.174;4.160;2023-04-24T14:59:37;18.40;99.90
18777;DHT22;9517;51.174;4.160;2023-04-24T15:02:06;18.00;99.90
18777;DHT22;9517;51.174;4.160;2023-04-24T15:04:33;17.30;99.90
18777;DHT22;9517;51.174;4.160;2023-04-24T15:07:00;17.20;99.90
18777;DHT22;9517;51.174;4.160;2023-04-24T15:09:27;16.60;99.90
18777;DHT22;9517;51.174;4.160;2023-04-24T15:11:58;15.70;99.90
18777;DHT22;9517;51.174;4.160;2023-04-24T15:14:28;15.00;99.90
18777;DHT22;9517;51.174;4.160;2023-04-24T15:16:55;14.50;99.90
18777;DHT22;9517;51.174;4.160;2023-04-24T15:19:23;14.70;99.90
18777;DHT22;9517;51.174;4.160;2023-04-24T15:21:50;14.40;99.90
18777;DHT22;9517;51.174;4.160;2023-04-24T15:24:17;14.60;99.90
18777;DHT22;9517;51.174;4.160;2023-04-24T15:26:44;14.30;99.90
18777;DHT22;9517;51.174;4.160;2023-04-24T15:29:12;14.40;99.90
18777;DHT22;9517;51.174;4.160;2023-04-24T15:31:40;14.40;99.90
18777;DHT22;9517;51.174;4.160;2023-04-24T15:34:07;14.50;99.90
18777;DHT22;9517;51.174;4.160;2023-04-24T15:36:34;14.40;99.90
18777;DHT22;9517;51.174;4.160;2023-04-24T15:39:02;14.30;99.90
18777;DHT22;9517;51.174;4.160;2023-04-24T15:41:29;14.50;99.90
18777;DHT22;9517;51.174;4.160;2023-04-24T15:43:57;14.70;99.90
18777;DHT22;9517;51.174;4.160;2023-04-24T15:46:25;14.30;99.90
18777;DHT22;9517;51.174;4.160;2023-04-24T15:48:53;14.20;99.90
18777;DHT22;9517;51.174;4.160;2023-04-24T15:51:22;14.30;99.90
18777;DHT22;9517;51.174;4.160;2023-04-24T15:53:49;14.40;99.90
18777;DHT22;9517;51.174;4.160;2023-04-24T15:56:16;14.50;99.90
18777;DHT22;9517;51.174;4.160;2023-04-24T15:58:43;14.10;99.90
18777;DHT22;9517;51.174;4.160;2023-04-24T16:01:10;13.90;99.90
18777;DHT22;9517;51.174;4.160;2023-04-24T16:03:40;13.80;99.90